sensor_id;sensor_type;location;lat;lon;timestamp;pressure;altitude;pressure_sealevel;temperature;humidity
4814;BME280;15375;48.540;9.268;2023-02-04T00:01:30;98593.91;;;5.37;100.00
4814;BME280;15375;48.540;9.268;2023-02-04T00:03:55;98581.78;;;5.31;100.00
4814;BME280;15375;48.540;9.268;2023-02-04T00:06:21;98580.56;;;5.29;100.00
4814;BME280;15375;48.540;9.268;2023-02-04T00:08:46;98596.19;;;5.35;100.00
4814;BME280;15375;48.540;9.268;2023-02-04T00:11:11;98568.78;;;5.21;100.00
4814;BME280;15375;48.540;9.268;2023-02-04T00:13:37;98559.81;;;5.17;100.00
4814;BME280;15375;48.540;9.268;2023-02-04T00:16:02;98555.25;;;5.21;100.00
4814;BME280;15375;48.540;9.268;2023-02-04T00:18:28;98585.50;;;5.42;100.00
4814;BME280;15375;48.540;9.268;2023-02-04T00:20:53;98570.09;;;5.27;100.00
4814;BME280;15375;48.540;9.268;2023-02-04T00:23:19;98564.97;;;5.22;100.00
4814;BME280;15375;48.540;9.268;2023-02-04T00:25:44;98578.31;;;5.31;100.00
4814;BME280;15375;48.540;9.268;2023-02-04T00:28:10;98571.16;;;5.23;100.00
4814;BME280;15375;48.540;9.268;2023-02-04T00:30:35;98580.56;;;5.29;100.00
4814;BME280;15375;48.540;9.268;2023-02-04T00:33:01;98528.28;;;4.90;100.00
4814;BME280;15375;48.540;9.268;2023-02-04T00:35:26;98598.88;;;5.35;100.00
4814;BME280;15375;48.540;9.268;2023-02-04T00:37:52;98591.47;;;5.32;100.00
4814;BME280;15375;48.540;9.268;2023-02-04T00:40:17;98574.19;;;5.21;100.00
4814;BME280;15375;48.540;9.268;2023-02-04T00:42:43;98561.25;;;5.11;100.00
4814;BME280;15375;48.540;9.268;2023-02-04T00:45:08;98600.28;;;5.29;100.00
4814;BME280;15375;48.540;9.268;2023-02-04T00:47:34;98592.09;;;5.26;100.00
4814;BME280;15375;48.540;9.268;2023-02-04T00:49:59;98579.53;;;5.18;100.00
4814;BME280;15375;48.540;9.268;2023-02-04T00:52:25;98592.00;;;5.22;100.00
4814;BME280;15375;48.540;9.268;2023-02-04T00:54:50;98590.41;;;5.21;100.00
4814;BME280;15375;48.540;9.268;2023-02-04T00:57:15;98602.13;;;5.25;100.00
4814;BME280;15375;48.540;9.268;2023-02-04T00:59:41;98579.53;;;5.18;100.00
4814;BME280;15375;48.540;9.268;2023-02-04T01:02:06;98577.09;;;5.12;100.00
4814;BME280;15375;48.540;9.268;2023-02-04T01:04:31;98604.56;;;5.30;100.00
4814;BME280;15375;48.540;9.268;2023-02-04T01:06:57;98606.84;;;5.28;100.00
4814;BME280;15375;48.540;9.268;2023-02-04T01:09:22;98588.94;;;5.24;100.00
4814;BME280;15375;48.540;9.268;2023-02-04T01:11:48;98585.38;;;5.20;100.00
4814;BME280;15375;48.540;9.268;2023-02-04T01:14:13;98599.06;;;5.27;100.00
4814;BME280;15375;48.540;9.268;2023-02-04T01:16:38;98609.44;;;5.25;100.00
4814;BME280;15375;48.540;9.268;2023-02-04T01:19:04;98603.25;;;5.24;100.00
4814;BME280;15375;48.540;9.268;2023-02-04T01:21:29;98593.84;;;5.18;100.00
4814;BME280;15375;48.540;9.268;2023-02-04T01:23:55;98593.84;;;5.18;100.00
4814;BME280;15375;48.540;9.268;2023-02-04T01:26:20;98561.00;;;5.00;100.00
4814;BME280;15375;48.540;9.268;2023-02-04T01:28:46;98601.44;;;5.28;100.00
4814;BME280;15375;48.540;9.268;2023-02-04T01:31:12;98617.56;;;5.40;100.00
4814;BME280;15375;48.540;9.268;2023-02-04T01:33:38;98609.97;;;5.30;100.00
4814;BME280;15375;48.540;9.268;2023-02-04T01:36:04;98625.41;;;5.45;100.00
4814;BME280;15375;48.540;9.268;2023-02-04T01:38:30;98611.72;;;5.38;100.00
4814;BME280;15375;48.540;9.268;2023-02-04T01:40:55;98597.16;;;5.27;100.00
4814;BME280;15375;48.540;9.268;2023-02-04T01:43:21;98618.53;;;5.32;100.00
4814;BME280;15375;48.540;9.268;2023-02-04T01:45:48;98620.69;;;5.42;100.00
4814;BME280;15375;48.540;9.268;2023-02-04T01:48:14;98630.88;;;5.49;100.00
4814;BME280;15375;48.540;9.268;2023-02-04T01:50:48;98609.72;;;5.35;100.00
4814;BME280;15375;48.540;9.268;2023-02-04T01:53:17;98648.50;;;5.58;100.00
4814;BME280;15375;48.540;9.268;2023-02-04T01:55:44;98637.50;;;5.51;100.00
4814;BME280;15375;48.540;9.268;2023-02-04T01:58:11;98655.13;;;5.61;100.00
4814;BME280;15375;48.540;9.268;2023-02-04T02:00:37;98661.69;;;5.60;100.00
4814;BME280;15375;48.540;9.268;2023-02-04T02:03:04;98637.19;;;5.37;100.00
4814;BME280;15375;48.540;9.268;2023-02-04T02:05:40;98643.63;;;5.48;100.00
4814;BME280;15375;48.540;9.268;2023-02-04T02:08:08;98660.63;;;5.64;100.00
4814;BME280;15375;48.540;9.268;2023-02-04T02:10:35;98669.63;;;5.68;100.00
4814;BME280;15375;48.540;9.268;2023-02-04T02:13:03;98652.16;;;5.66;100.00
4814;BME280;15375;48.540;9.268;2023-02-04T02:15:29;98594.81;;;5.26;100.00
4814;BME280;15375;48.540;9.268;2023-02-04T02:17:55;98660.00;;;5.71;100.00
4814;BME280;15375;48.540;9.268;2023-02-04T02:20:22;98666.56;;;5.70;100.00
4814;BME280;15375;48.540;9.268;2023-02-04T02:22:51;98661.13;;;5.70;100.00
4814;BME280;15375;48.540;9.268;2023-02-04T02:25:20;98667.34;;;5.70;100.00
4814;BME280;15375;48.540;9.268;2023-02-04T02:27:46;98670.06;;;5.70;100.00
4814;BME280;15375;48.540;9.268;2023-02-04T02:30:12;98663.25;;;5.61;100.00
4814;BME280;15375;48.540;9.268;2023-02-04T02:32:43;98676.53;;;5.66;100.00
4814;BME280;15375;48.540;9.268;2023-02-04T02:35:09;98673.03;;;5.65;100.00
4814;BME280;15375;48.540;9.268;2023-02-04T02:37:35;98661.59;;;5.56;100.00
4814;BME280;15375;48.540;9.268;2023-02-04T02:40:00;98662.47;;;5.60;100.00
4814;BME280;15375;48.540;9.268;2023-02-04T02:42:26;98661.78;;;5.63;100.00
4814;BME280;15375;48.540;9.268;2023-02-04T02:44:51;98666.72;;;5.61;100.00
4814;BME280;15375;48.540;9.268;2023-02-04T02:47:20;98676.44;;;5.62;100.00
4814;BME280;15375;48.540;9.268;2023-02-04T02:49:48;98683.69;;;5.58;100.00
4814;BME280;15375;48.540;9.268;2023-02-04T02:52:14;98693.38;;;5.59;100.00
4814;BME280;15375;48.540;9.268;2023-02-04T02:54:40;98698.34;;;5.57;100.00
4814;BME280;15375;48.540;9.268;2023-02-04T02:57:11;98687.88;;;5.56;100.00
4814;BME280;15375;48.540;9.268;2023-02-04T02:59:37;98659.47;;;5.31;100.00
4814;BME280;15375;48.540;9.268;2023-02-04T03:02:03;98674.63;;;5.35;100.00
4814;BME280;15375;48.540;9.268;2023-02-04T03:04:32;98680.22;;;5.42;100.00
4814;BME280;15375;48.540;9.268;2023-02-04T03:06:59;98662.59;;;5.33;100.00
4814;BME280;15375;48.540;9.268;2023-02-04T03:09:26;98693.84;;;5.46;100.00
4814;BME280;15375;48.540;9.268;2023-02-04T03:11:52;98691.88;;;5.46;100.00
4814;BME280;15375;48.540;9.268;2023-02-04T03:14:17;98702.91;;;5.53;100.00
4814;BME280;15375;48.540;9.268;2023-02-04T03:16:43;98687.63;;;5.45;100.00
4814;BME280;15375;48.540;9.268;2023-02-04T03:19:11;98687.63;;;5.45;100.00
4814;BME280;15375;48.540;9.268;2023-02-04T03:21:36;98698.88;;;5.47;100.00
4814;BME280;15375;48.540;9.268;2023-02-04T03:24:03;98682.31;;;5.33;100.00
4814;BME280;15375;48.540;9.268;2023-02-04T03:26:29;98698.78;;;5.44;100.00
4814;BME280;15375;48.540;9.268;2023-02-04T03:28:54;98701.59;;;5.47;100.00
4814;BME280;15375;48.540;9.268;2023-02-04T03:31:20;98703.94;;;5.49;100.00
4814;BME280;15375;48.540;9.268;2023-02-04T03:33:45;98709.81;;;5.51;100.00
4814;BME280;15375;48.540;9.268;2023-02-04T03:36:11;98728.22;;;5.61;100.00
4814;BME280;15375;48.540;9.268;2023-02-04T03:38:36;98726.91;;;5.55;100.00
4814;BME280;15375;48.540;9.268;2023-02-04T03:41:02;98729.50;;;5.51;100.00
4814;BME280;15375;48.540;9.268;2023-02-04T03:43:28;98713.03;;;5.41;100.00
4814;BME280;15375;48.540;9.268;2023-02-04T03:45:53;98714.59;;;5.42;100.00
4814;BME280;15375;48.540;9.268;2023-02-04T03:48:18;98734.91;;;5.51;100.00
4814;BME280;15375;48.540;9.268;2023-02-04T03:50:44;98755.88;;;5.54;100.00
4814;BME280;15375;48.540;9.268;2023-02-04T03:53:09;98759.00;;;5.56;100.00
4814;BME280;15375;48.540;9.268;2023-02-04T03:55:35;98748.81;;;5.50;100.00
4814;BME280;15375;48.540;9.268;2023-02-04T03:58:01;98766.69;;;5.54;100.00
4814;BME280;15375;48.540;9.268;2023-02-04T04:00:27;98748.66;;;5.43;100.00
4814;BME280;15375;48.540;9.268;2023-02-04T04:02:53;98761.03;;;5.44;100.00
4814;BME280;15375;48.540;9.268;2023-02-04T04:05:18;98756.94;;;5.50;100.00
4814;BME280;15375;48.540;9.268;2023-02-04T04:07:43;98752.16;;;5.43;100.00
4814;BME280;15375;48.540;9.268;2023-02-04T04:10:09;98762.72;;;5.48;100.00
4814;BME280;15375;48.540;9.268;2023-02-04T04:12:35;98760.69;;;5.45;100.00
4814;BME280;15375;48.540;9.268;2023-02-04T04:15:00;98765.84;;;5.50;100.00
4814;BME280;15375;48.540;9.268;2023-02-04T04:17:26;98743.50;;;5.38;100.00
4814;BME280;15375;48.540;9.268;2023-02-04T04:19:51;98741.59;;;5.38;100.00
4814;BME280;15375;48.540;9.268;2023-02-04T04:22:16;98749.69;;;5.38;100.00
4814;BME280;15375;48.540;9.268;2023-02-04T04:24:42;98760.06;;;5.36;100.00
4814;BME280;15375;48.540;9.268;2023-02-04T04:27:07;98748.38;;;5.32;100.00
4814;BME280;15375;48.540;9.268;2023-02-04T04:29:32;98745.56;;;5.29;100.00
4814;BME280;15375;48.540;9.268;2023-02-04T04:31:58;98759.72;;;5.38;100.00
4814;BME280;15375;48.540;9.268;2023-02-04T04:34:23;98763.13;;;5.35;100.00
4814;BME280;15375;48.540;9.268;2023-02-04T04:36:48;98755.94;;;5.27;100.00
4814;BME280;15375;48.540;9.268;2023-02-04T04:39:14;98758.66;;;5.27;100.00
4814;BME280;15375;48.540;9.268;2023-02-04T04:41:39;98768.25;;;5.24;100.00
4814;BME280;15375;48.540;9.268;2023-02-04T04:44:04;98774.56;;;5.28;100.00
4814;BME280;15375;48.540;9.268;2023-02-04T04:46:30;98737.59;;;5.04;100.00
4814;BME280;15375;48.540;9.268;2023-02-04T04:48:55;98772.09;;;5.23;100.00
4814;BME280;15375;48.540;9.268;2023-02-04T04:51:21;98768.25;;;5.24;100.00
4814;BME280;15375;48.540;9.268;2023-02-04T04:53:46;98760.13;;;5.24;100.00
4814;BME280;15375;48.540;9.268;2023-02-04T04:56:11;98770.63;;;5.26;100.00
4814;BME280;15375;48.540;9.268;2023-02-04T04:58:37;98771.50;;;5.30;100.00
4814;BME280;15375;48.540;9.268;2023-02-04T05:01:02;98767.72;;;5.18;100.00
4814;BME280;15375;48.540;9.268;2023-02-04T05:03:27;98785.56;;;5.35;100.00
4814;BME280;15375;48.540;9.268;2023-02-04T05:05:53;98783.78;;;5.27;100.00
4814;BME280;15375;48.540;9.268;2023-02-04T05:08:18;98776.38;;;5.24;100.00
4814;BME280;15375;48.540;9.268;2023-02-04T05:10:45;98798.19;;;5.31;100.00
4814;BME280;15375;48.540;9.268;2023-02-04T05:13:11;98782.22;;;5.26;100.00
4814;BME280;15375;48.540;9.268;2023-02-04T05:15:36;98767.72;;;5.18;100.00
4814;BME280;15375;48.540;9.268;2023-02-04T05:18:02;98756.38;;;5.13;100.00
4814;BME280;15375;48.540;9.268;2023-02-04T05:20:27;98776.81;;;5.26;100.00
4814;BME280;15375;48.540;9.268;2023-02-04T05:22:53;98757.25;;;5.17;100.00
4814;BME280;15375;48.540;9.268;2023-02-04T05:25:21;98784.06;;;5.38;100.00
4814;BME280;15375;48.540;9.268;2023-02-04T05:27:47;98781.69;;;5.36;100.00
4814;BME280;15375;48.540;9.268;2023-02-04T05:30:13;98786.50;;;5.27;100.00
4814;BME280;15375;48.540;9.268;2023-02-04T05:32:39;98750.81;;;5.06;100.00
4814;BME280;15375;48.540;9.268;2023-02-04T05:35:05;98756.22;;;5.06;100.00
4814;BME280;15375;48.540;9.268;2023-02-04T05:37:30;98719.38;;;4.86;100.00
4814;BME280;15375;48.540;9.268;2023-02-04T05:39:56;98755.97;;;5.11;100.00
4814;BME280;15375;48.540;9.268;2023-02-04T05:42:21;98770.84;;;5.05;100.00
4814;BME280;15375;48.540;9.268;2023-02-04T05:44:47;98786.56;;;5.15;100.00
4814;BME280;15375;48.540;9.268;2023-02-04T05:47:12;98794.16;;;5.09;100.00
4814;BME280;15375;48.540;9.268;2023-02-04T05:49:37;98786.97;;;5.01;100.00
4814;BME280;15375;48.540;9.268;2023-02-04T05:52:03;98790.63;;;4.93;100.00
4814;BME280;15375;48.540;9.268;2023-02-04T05:54:28;98809.81;;;5.04;100.00
4814;BME280;15375;48.540;9.268;2023-02-04T05:56:54;98798.50;;;4.98;100.00
4814;BME280;15375;48.540;9.268;2023-02-04T05:59:19;98815.69;;;5.06;100.00
4814;BME280;15375;48.540;9.268;2023-02-04T06:01:44;98789.84;;;4.93;100.00
4814;BME280;15375;48.540;9.268;2023-02-04T06:04:10;98801.97;;;4.99;100.00
4814;BME280;15375;48.540;9.268;2023-02-04T06:06:35;98794.31;;;5.01;100.00
4814;BME280;15375;48.540;9.268;2023-02-04T06:09:01;98798.56;;;5.02;100.00
4814;BME280;15375;48.540;9.268;2023-02-04T06:11:26;98800.16;;;5.03;100.00
4814;BME280;15375;48.540;9.268;2023-02-04T06:13:52;98821.09;;;5.06;100.00
4814;BME280;15375;48.540;9.268;2023-02-04T06:16:17;98805.94;;;4.89;100.00
4814;BME280;15375;48.540;9.268;2023-02-04T06:18:42;98833.72;;;5.02;100.00
4814;BME280;15375;48.540;9.268;2023-02-04T06:21:08;98836.97;;;5.07;100.00
4814;BME280;15375;48.540;9.268;2023-02-04T06:23:33;98825.78;;;4.93;100.00
4814;BME280;15375;48.540;9.268;2023-02-04T06:26:02;98835.56;;;4.98;100.00
4814;BME280;15375;48.540;9.268;2023-02-04T06:28:27;98847.50;;;4.97;100.00
4814;BME280;15375;48.540;9.268;2023-02-04T06:30:53;98820.78;;;4.68;100.00
4814;BME280;15375;48.540;9.268;2023-02-04T06:33:18;98855.22;;;4.83;100.00
4814;BME280;15375;48.540;9.268;2023-02-04T06:35:45;98838.31;;;4.74;100.00
4814;BME280;15375;48.540;9.268;2023-02-04T06:38:11;98856.78;;;4.84;100.00
4814;BME280;15375;48.540;9.268;2023-02-04T06:40:36;98861.94;;;4.89;100.00
4814;BME280;15375;48.540;9.268;2023-02-04T06:43:02;98865.78;;;4.88;100.00
4814;BME280;15375;48.540;9.268;2023-02-04T06:45:27;98860.19;;;4.81;100.00
4814;BME280;15375;48.540;9.268;2023-02-04T06:47:53;98863.75;;;4.85;100.00
4814;BME280;15375;48.540;9.268;2023-02-04T06:50:18;98853.31;;;4.83;100.00
4814;BME280;15375;48.540;9.268;2023-02-04T06:52:44;98868.94;;;4.90;100.00
4814;BME280;15375;48.540;9.268;2023-02-04T06:55:11;98862.63;;;4.86;100.00
4814;BME280;15375;48.540;9.268;2023-02-04T06:57:37;98864.19;;;4.87;100.00
4814;BME280;15375;48.540;9.268;2023-02-04T07:00:02;98866.91;;;4.87;100.00
4814;BME280;15375;48.540;9.268;2023-02-04T07:02:28;98827.75;;;4.69;100.00
4814;BME280;15375;48.540;9.268;2023-02-04T07:04:53;98855.78;;;4.76;100.00
4814;BME280;15375;48.540;9.268;2023-02-04T07:07:19;98878.91;;;5.01;100.00
4814;BME280;15375;48.540;9.268;2023-02-04T07:09:44;98875.13;;;4.90;100.00
4814;BME280;15375;48.540;9.268;2023-02-04T07:12:09;98869.59;;;4.87;100.00
4814;BME280;15375;48.540;9.268;2023-02-04T07:14:35;98882.44;;;4.90;100.00
4814;BME280;15375;48.540;9.268;2023-02-04T07:17:00;98888.97;;;4.89;100.00
4814;BME280;15375;48.540;9.268;2023-02-04T07:19:26;98890.31;;;4.95;100.00
4814;BME280;15375;48.540;9.268;2023-02-04T07:21:51;98897.94;;;5.05;100.00
4814;BME280;15375;48.540;9.268;2023-02-04T07:24:20;98905.03;;;5.09;100.00
4814;BME280;15375;48.540;9.268;2023-02-04T07:26:46;98874.44;;;4.93;100.00
4814;BME280;15375;48.540;9.268;2023-02-04T07:29:11;98896.72;;;5.02;100.00
4814;BME280;15375;48.540;9.268;2023-02-04T07:31:37;98894.38;;;5.01;100.00
4814;BME280;15375;48.540;9.268;2023-02-04T07:34:02;98890.88;;;5.00;100.00
4814;BME280;15375;48.540;9.268;2023-02-04T07:36:27;98914.63;;;5.07;100.00
4814;BME280;15375;48.540;9.268;2023-02-04T07:38:53;98917.53;;;5.14;100.00
4814;BME280;15375;48.540;9.268;2023-02-04T07:41:18;98923.97;;;5.09;100.00
4814;BME280;15375;48.540;9.268;2023-02-04T07:43:45;98933.06;;;5.17;100.00
4814;BME280;15375;48.540;9.268;2023-02-04T07:46:10;98925.31;;;5.15;100.00
4814;BME280;15375;48.540;9.268;2023-02-04T07:48:35;98926.44;;;5.14;100.00
4814;BME280;15375;48.540;9.268;2023-02-04T07:51:01;98920.34;;;5.18;100.00
4814;BME280;15375;48.540;9.268;2023-02-04T07:53:26;98933.63;;;5.23;100.00
4814;BME280;15375;48.540;9.268;2023-02-04T07:55:52;98925.16;;;5.24;100.00
4814;BME280;15375;48.540;9.268;2023-02-04T07:58:17;98931.22;;;5.33;100.00
4814;BME280;15375;48.540;9.268;2023-02-04T08:00:42;98935.91;;;5.36;100.00
4814;BME280;15375;48.540;9.268;2023-02-04T08:03:08;98894.75;;;5.15;100.00
4814;BME280;15375;48.540;9.268;2023-02-04T08:05:33;98939.19;;;5.42;100.00
4814;BME280;15375;48.540;9.268;2023-02-04T08:07:58;98917.72;;;5.21;100.00
4814;BME280;15375;48.540;9.268;2023-02-04T08:10:26;98935.97;;;5.24;100.00
4814;BME280;15375;48.540;9.268;2023-02-04T08:12:51;98944.19;;;5.28;100.00
4814;BME280;15375;48.540;9.268;2023-02-04T08:15:17;98936.31;;;5.23;100.00
4814;BME280;15375;48.540;9.268;2023-02-04T08:17:42;98969.53;;;5.35;100.00
4814;BME280;15375;48.540;9.268;2023-02-04T08:20:08;98902.97;;;4.91;100.00
4814;BME280;15375;48.540;9.268;2023-02-04T08:22:33;98978.69;;;5.31;100.00
4814;BME280;15375;48.540;9.268;2023-02-04T08:24:59;98977.41;;;5.40;100.00
4814;BME280;15375;48.540;9.268;2023-02-04T08:27:24;98960.97;;;5.33;100.00
4814;BME280;15375;48.540;9.268;2023-02-04T08:29:50;98969.31;;;5.40;100.00
4814;BME280;15375;48.540;9.268;2023-02-04T08:32:15;98983.22;;;5.54;100.00
4814;BME280;15375;48.540;9.268;2023-02-04T08:34:41;98966.53;;;5.52;100.00
4814;BME280;15375;48.540;9.268;2023-02-04T08:37:06;98975.66;;;5.60;100.00
4814;BME280;15375;48.540;9.268;2023-02-04T08:39:31;98972.84;;;5.56;100.00
4814;BME280;15375;48.540;9.268;2023-02-04T08:41:57;98984.13;;;5.58;100.00
4814;BME280;15375;48.540;9.268;2023-02-04T08:44:22;98990.06;;;5.64;100.00
4814;BME280;15375;48.540;9.268;2023-02-04T08:46:48;98979.59;;;5.62;100.00
4814;BME280;15375;48.540;9.268;2023-02-04T08:49:13;98985.63;;;8.04;100.00
4814;BME280;15375;48.540;9.268;2023-02-04T08:51:38;98987.97;;;8.96;100.00
4814;BME280;15375;48.540;9.268;2023-02-04T08:54:04;98963.78;;;7.78;100.00
4814;BME280;15375;48.540;9.268;2023-02-04T08:56:29;98969.38;;;7.47;100.00
4814;BME280;15375;48.540;9.268;2023-02-04T08:58:55;99002.38;;;7.30;100.00
4814;BME280;15375;48.540;9.268;2023-02-04T09:01:20;98990.00;;;6.97;100.00
4814;BME280;15375;48.540;9.268;2023-02-04T09:03:46;98994.78;;;6.69;100.00
4814;BME280;15375;48.540;9.268;2023-02-04T09:06:11;99018.31;;;6.65;100.00
4814;BME280;15375;48.540;9.268;2023-02-04T09:08:37;98983.06;;;6.18;100.00
4814;BME280;15375;48.540;9.268;2023-02-04T09:11:02;99014.41;;;6.19;100.00
4814;BME280;15375;48.540;9.268;2023-02-04T09:13:29;98997.63;;;5.98;100.00
4814;BME280;15375;48.540;9.268;2023-02-04T09:15:54;99004.94;;;5.98;100.00
4814;BME280;15375;48.540;9.268;2023-02-04T09:18:19;99018.69;;;6.05;100.00
4814;BME280;15375;48.540;9.268;2023-02-04T09:20:48;99033.06;;;6.21;100.00
4814;BME280;15375;48.540;9.268;2023-02-04T09:23:14;99022.91;;;6.18;100.00
4814;BME280;15375;48.540;9.268;2023-02-04T09:25:41;99027.28;;;6.22;100.00
4814;BME280;15375;48.540;9.268;2023-02-04T09:28:08;99030.16;;;6.14;100.00
4814;BME280;15375;48.540;9.268;2023-02-04T09:30:39;99032.88;;;6.14;100.00
4814;BME280;15375;48.540;9.268;2023-02-04T09:33:05;99035.13;;;6.12;100.00
4814;BME280;15375;48.540;9.268;2023-02-04T09:35:30;99035.63;;;6.02;100.00
4814;BME280;15375;48.540;9.268;2023-02-04T09:37:56;99051.03;;;6.13;100.00
4814;BME280;15375;48.540;9.268;2023-02-04T09:40:22;99051.91;;;6.17;100.00
4814;BME280;15375;48.540;9.268;2023-02-04T09:42:49;99009.25;;;6.14;100.00
4814;BME280;15375;48.540;9.268;2023-02-04T09:45:26;99048.31;;;6.41;100.00
4814;BME280;15375;48.540;9.268;2023-02-04T09:47:53;99062.63;;;6.57;100.00
4814;BME280;15375;48.540;9.268;2023-02-04T09:50:21;99055.03;;;6.47;100.00
4814;BME280;15375;48.540;9.268;2023-02-04T09:52:49;99070.34;;;6.55;100.00
4814;BME280;15375;48.540;9.268;2023-02-04T09:55:17;99071.41;;;6.66;100.00
4814;BME280;15375;48.540;9.268;2023-02-04T09:57:43;99059.16;;;6.57;100.00
4814;BME280;15375;48.540;9.268;2023-02-04T10:00:18;99073.84;;;6.71;100.00
4814;BME280;15375;48.540;9.268;2023-02-04T10:02:44;99080.78;;;6.84;100.00
4814;BME280;15375;48.540;9.268;2023-02-04T10:05:29;99082.84;;;6.75;100.00
4814;BME280;15375;48.540;9.268;2023-02-04T10:07:55;99063.69;;;6.68;100.00
4814;BME280;15375;48.540;9.268;2023-02-04T10:10:23;99054.97;;;6.59;100.00
4814;BME280;15375;48.540;9.268;2023-02-04T10:12:55;99052.97;;;6.72;100.00
4814;BME280;15375;48.540;9.268;2023-02-04T10:15:21;99071.75;;;6.96;100.00
4814;BME280;15375;48.540;9.268;2023-02-04T10:17:57;99069.13;;;6.99;100.00
4814;BME280;15375;48.540;9.268;2023-02-04T10:20:26;99049.34;;;6.83;100.00
4814;BME280;15375;48.540;9.268;2023-02-04T10:22:53;99063.09;;;7.06;100.00
4814;BME280;15375;48.540;9.268;2023-02-04T10:25:23;99052.31;;;7.10;100.00
4814;BME280;15375;48.540;9.268;2023-02-04T10:27:54;99039.88;;;7.08;100.00
4814;BME280;15375;48.540;9.268;2023-02-04T10:30:36;99049.00;;;7.00;100.00
4814;BME280;15375;48.540;9.268;2023-02-04T10:33:31;99051.41;;;7.21;100.00
4814;BME280;15375;48.540;9.268;2023-02-04T10:35:59;99041.25;;;7.18;100.00
4814;BME280;15375;48.540;9.268;2023-02-04T10:38:24;99020.19;;;7.12;100.00
4814;BME280;15375;48.540;9.268;2023-02-04T10:41:04;99045.69;;;7.61;100.00
4814;BME280;15375;48.540;9.268;2023-02-04T10:43:30;99046.56;;;7.65;100.00
4814;BME280;15375;48.540;9.268;2023-02-04T10:45:58;99034.13;;;8.02;98.72
4814;BME280;15375;48.540;9.268;2023-02-04T10:48:24;99045.94;;;8.52;100.00
4814;BME280;15375;48.540;9.268;2023-02-04T10:50:50;98968.44;;;7.78;92.64
4814;BME280;15375;48.540;9.268;2023-02-04T10:53:20;98971.53;;;7.57;92.39
4814;BME280;15375;48.540;9.268;2023-02-04T10:56:17;99034.41;;;7.40;100.00
4814;BME280;15375;48.540;9.268;2023-02-04T10:58:44;99023.22;;;7.26;97.84
4814;BME280;15375;48.540;9.268;2023-02-04T11:01:11;99017.94;;;6.98;91.34
4814;BME280;15375;48.540;9.268;2023-02-04T11:03:38;99038.66;;;6.90;92.89
4814;BME280;15375;48.540;9.268;2023-02-04T11:06:09;99043.25;;;6.86;92.59
4814;BME280;15375;48.540;9.268;2023-02-04T11:08:36;99024.84;;;6.95;96.17
4814;BME280;15375;48.540;9.268;2023-02-04T11:11:14;99041.97;;;7.15;95.47
4814;BME280;15375;48.540;9.268;2023-02-04T11:19:05;99025.66;;;8.46;88.32
4814;BME280;15375;48.540;9.268;2023-02-04T11:26:37;99040.97;;;8.80;86.99
4814;BME280;15375;48.540;9.268;2023-02-04T11:39:22;99017.84;;;10.08;77.51
4814;BME280;15375;48.540;9.268;2023-02-04T11:41:48;99031.03;;;10.36;69.07
4814;BME280;15375;48.540;9.268;2023-02-04T11:44:14;99026.78;;;10.05;68.53
4814;BME280;15375;48.540;9.268;2023-02-04T11:46:40;99017.91;;;9.82;74.34
4814;BME280;15375;48.540;9.268;2023-02-04T11:49:17;99017.84;;;9.75;74.88
4814;BME280;15375;48.540;9.268;2023-02-04T11:51:43;99003.31;;;9.97;68.37
4814;BME280;15375;48.540;9.268;2023-02-04T11:54:15;99014.16;;;9.60;73.05
4814;BME280;15375;48.540;9.268;2023-02-04T11:56:44;99015.44;;;9.40;71.41
4814;BME280;15375;48.540;9.268;2023-02-04T11:59:11;98999.25;;;9.21;68.31
4814;BME280;15375;48.540;9.268;2023-02-04T12:01:37;98994.78;;;9.10;72.57
4814;BME280;15375;48.540;9.268;2023-02-04T12:04:05;98997.75;;;9.27;69.45
4814;BME280;15375;48.540;9.268;2023-02-04T12:06:33;99003.81;;;9.14;71.01
4814;BME280;15375;48.540;9.268;2023-02-04T12:11:51;99025.31;;;9.22;72.54
4814;BME280;15375;48.540;9.268;2023-02-04T12:14:17;99039.97;;;9.14;74.22
4814;BME280;15375;48.540;9.268;2023-02-04T12:16:45;99030.00;;;8.73;73.62
4814;BME280;15375;48.540;9.268;2023-02-04T12:19:11;99019.25;;;8.15;74.51
4814;BME280;15375;48.540;9.268;2023-02-04T12:21:37;98979.81;;;7.64;75.73
4814;BME280;15375;48.540;9.268;2023-02-04T12:24:03;99005.56;;;7.70;77.19
4814;BME280;15375;48.540;9.268;2023-02-04T12:26:29;99039.34;;;7.92;78.31
4814;BME280;15375;48.540;9.268;2023-02-04T12:28:54;99011.31;;;7.49;76.62
4814;BME280;15375;48.540;9.268;2023-02-04T12:31:19;99027.53;;;7.46;80.90
4814;BME280;15375;48.540;9.268;2023-02-04T12:33:45;99054.53;;;7.58;82.09
4814;BME280;15375;48.540;9.268;2023-02-04T12:36:10;99037.69;;;7.49;79.31
4814;BME280;15375;48.540;9.268;2023-02-04T12:38:36;99041.53;;;7.48;81.31
4814;BME280;15375;48.540;9.268;2023-02-04T12:41:01;99029.66;;;7.37;82.21
4814;BME280;15375;48.540;9.268;2023-02-04T12:43:26;99043.38;;;7.44;80.96
4814;BME280;15375;48.540;9.268;2023-02-04T12:45:52;99039.19;;;7.46;79.77
4814;BME280;15375;48.540;9.268;2023-02-04T12:48:17;99040.13;;;7.54;75.47
4814;BME280;15375;48.540;9.268;2023-02-04T12:50:42;99018.97;;;7.44;77.96
4814;BME280;15375;48.540;9.268;2023-02-04T12:53:08;99037.97;;;7.44;80.33
4814;BME280;15375;48.540;9.268;2023-02-04T12:55:33;99035.94;;;7.41;81.83
4814;BME280;15375;48.540;9.268;2023-02-04T12:57:59;99038.38;;;7.46;81.29
4814;BME280;15375;48.540;9.268;2023-02-04T13:00:24;99027.75;;;7.37;82.65
4814;BME280;15375;48.540;9.268;2023-02-04T13:02:51;99022.22;;;7.34;81.43
4814;BME280;15375;48.540;9.268;2023-02-04T13:05:19;99034.69;;;7.35;82.39
4814;BME280;15375;48.540;9.268;2023-02-04T13:07:44;99047.44;;;7.34;81.95
4814;BME280;15375;48.540;9.268;2023-02-04T13:10:11;99062.25;;;7.37;79.75
4814;BME280;15375;48.540;9.268;2023-02-04T13:12:37;99047.91;;;7.21;80.18
4814;BME280;15375;48.540;9.268;2023-02-04T13:15:03;99055.25;;;7.20;78.99
4814;BME280;15375;48.540;9.268;2023-02-04T13:17:28;99055.31;;;7.04;81.95
4814;BME280;15375;48.540;9.268;2023-02-04T13:19:54;99058.34;;;7.03;83.20
4814;BME280;15375;48.540;9.268;2023-02-04T13:22:19;99057.41;;;6.95;85.65
4814;BME280;15375;48.540;9.268;2023-02-04T13:24:44;99072.38;;;6.89;87.95
4814;BME280;15375;48.540;9.268;2023-02-04T13:27:10;99056.97;;;6.78;89.57
4814;BME280;15375;48.540;9.268;2023-02-04T13:29:35;99055.22;;;6.85;87.36
4814;BME280;15375;48.540;9.268;2023-02-04T13:32:01;99078.22;;;7.07;89.00